sensor_id;sensor_type;location;lat;lon;timestamp;pressure;altitude;pressure_sealevel;temperature;humidity
4469;BME280;2247;42.666;23.292;2023-01-25T00:04:21;95459.59;;;5.95;67.61
4469;BME280;2247;42.666;23.292;2023-01-25T00:27:50;95474.47;;;5.45;69.83
4469;BME280;2247;42.666;23.292;2023-01-25T00:56:56;95474.13;;;5.66;68.77
4469;BME280;2247;42.666;23.292;2023-01-25T01:15:18;95480.31;;;5.09;68.28
4469;BME280;2247;42.666;23.292;2023-01-25T01:17:57;95474.16;;;5.28;68.04
4469;BME280;2247;42.666;23.292;2023-01-25T01:20:29;95457.19;;;5.12;67.82
4469;BME280;2247;42.666;23.292;2023-01-25T01:23:06;95436.44;;;5.24;67.43
4469;BME280;2247;42.666;23.292;2023-01-25T01:25:42;95460.34;;;5.52;66.74
4469;BME280;2247;42.666;23.292;2023-01-25T01:28:19;95476.94;;;5.33;67.15
4469;BME280;2247;42.666;23.292;2023-01-25T01:31:11;95415.72;;;4.98;67.57
4469;BME280;2247;42.666;23.292;2023-01-25T01:44:13;95439.50;;;5.14;67.69
4469;BME280;2247;42.666;23.292;2023-01-25T02:13:30;95432.00;;;5.74;66.18
4469;BME280;2247;42.666;23.292;2023-01-25T02:15:58;95438.59;;;5.59;66.75
4469;BME280;2247;42.666;23.292;2023-01-25T02:18:25;95445.56;;;5.65;67.27
4469;BME280;2247;42.666;23.292;2023-01-25T02:20:53;95426.38;;;5.52;67.00
4469;BME280;2247;42.666;23.292;2023-01-25T02:23:27;95433.31;;;5.65;66.90
4469;BME280;2247;42.666;23.292;2023-01-25T02:26:00;95440.34;;;5.89;66.38
4469;BME280;2247;42.666;23.292;2023-01-25T02:28:31;95437.75;;;5.83;66.50
4469;BME280;2247;42.666;23.292;2023-01-25T02:31:00;95443.38;;;5.86;66.15
4469;BME280;2247;42.666;23.292;2023-01-25T02:33:28;95442.75;;;5.91;66.50
4469;BME280;2247;42.666;23.292;2023-01-25T02:35:59;95444.19;;;5.87;66.18
4469;BME280;2247;42.666;23.292;2023-01-25T02:43:59;95431.28;;;5.92;66.48
4469;BME280;2247;42.666;23.292;2023-01-25T02:46:36;95433.69;;;5.93;66.75
4469;BME280;2247;42.666;23.292;2023-01-25T02:49:09;95401.06;;;5.71;66.59
4469;BME280;2247;42.666;23.292;2023-01-25T02:54:18;95409.59;;;5.85;66.05
4469;BME280;2247;42.666;23.292;2023-01-25T03:18:13;95446.31;;;4.78;69.71
4469;BME280;2247;42.666;23.292;2023-01-25T03:23:23;95432.91;;;4.74;69.68
4469;BME280;2247;42.666;23.292;2023-01-25T03:26:05;95435.03;;;4.90;69.28
4469;BME280;2247;42.666;23.292;2023-01-25T03:28:40;95429.38;;;4.93;68.91
4469;BME280;2247;42.666;23.292;2023-01-25T03:31:24;95407.28;;;4.96;68.62
4469;BME280;2247;42.666;23.292;2023-01-25T03:36:57;95437.06;;;4.82;69.95
4469;BME280;2247;42.666;23.292;2023-01-25T03:39:39;95440.84;;;4.86;69.88
4469;BME280;2247;42.666;23.292;2023-01-25T03:42:15;95397.13;;;4.81;69.20
4469;BME280;2247;42.666;23.292;2023-01-25T03:44:47;95432.09;;;5.05;69.30
4469;BME280;2247;42.666;23.292;2023-01-25T03:47:26;95435.00;;;4.97;69.08
4469;BME280;2247;42.666;23.292;2023-01-25T04:00:55;95408.50;;;4.55;69.13
4469;BME280;2247;42.666;23.292;2023-01-25T04:03:30;95419.13;;;4.92;68.93
4469;BME280;2247;42.666;23.292;2023-01-25T04:06:05;95397.34;;;4.73;69.08
4469;BME280;2247;42.666;23.292;2023-01-25T04:08:44;95406.13;;;4.85;69.01
4469;BME280;2247;42.666;23.292;2023-01-25T04:11:28;95393.06;;;4.47;69.65
4469;BME280;2247;42.666;23.292;2023-01-25T04:19:15;95393.75;;;4.74;69.95
4469;BME280;2247;42.666;23.292;2023-01-25T04:21:55;95416.53;;;4.92;69.64
4469;BME280;2247;42.666;23.292;2023-01-25T04:29:39;95399.38;;;4.71;69.61
4469;BME280;2247;42.666;23.292;2023-01-25T04:40:09;95435.44;;;4.87;69.41
4469;BME280;2247;42.666;23.292;2023-01-25T04:42:46;95417.88;;;4.69;68.89
4469;BME280;2247;42.666;23.292;2023-01-25T04:45:26;95434.44;;;4.88;69.35
4469;BME280;2247;42.666;23.292;2023-01-25T04:50:42;95410.16;;;4.36;70.03
4469;BME280;2247;42.666;23.292;2023-01-25T04:56:07;95397.66;;;4.01;71.21
4469;BME280;2247;42.666;23.292;2023-01-25T04:58:39;95427.38;;;4.44;70.93
4469;BME280;2247;42.666;23.292;2023-01-25T05:01:13;95437.19;;;4.55;70.16
4469;BME280;2247;42.666;23.292;2023-01-25T05:08:53;95443.41;;;4.99;69.00
4469;BME280;2247;42.666;23.292;2023-01-25T05:11:26;95418.16;;;4.86;68.56
4469;BME280;2247;42.666;23.292;2023-01-25T05:16:31;95423.13;;;5.26;67.05
4469;BME280;2247;42.666;23.292;2023-01-25T05:21:39;95415.63;;;5.61;64.83
4469;BME280;2247;42.666;23.292;2023-01-25T05:24:28;95383.16;;;5.50;64.40
4469;BME280;2247;42.666;23.292;2023-01-25T05:27:13;95403.16;;;5.63;63.89
4469;BME280;2247;42.666;23.292;2023-01-25T05:29:42;95419.38;;;5.71;63.20
4469;BME280;2247;42.666;23.292;2023-01-25T05:32:14;95426.38;;;5.52;63.65
4469;BME280;2247;42.666;23.292;2023-01-25T05:34:55;95405.94;;;5.43;63.95
4469;BME280;2247;42.666;23.292;2023-01-25T05:37:24;95420.16;;;5.47;63.83
4469;BME280;2247;42.666;23.292;2023-01-25T05:40:03;95421.97;;;5.22;64.82
4469;BME280;2247;42.666;23.292;2023-01-25T05:42:32;95427.78;;;5.24;65.51
4469;BME280;2247;42.666;23.292;2023-01-25T05:44:59;95418.56;;;5.21;64.82
4469;BME280;2247;42.666;23.292;2023-01-25T05:47:26;95419.28;;;5.03;65.09
4469;BME280;2247;42.666;23.292;2023-01-25T05:49:54;95414.53;;;4.87;65.33
4469;BME280;2247;42.666;23.292;2023-01-25T05:52:21;95426.41;;;4.90;65.40
4469;BME280;2247;42.666;23.292;2023-01-25T05:54:48;95424.91;;;5.00;65.42
4469;BME280;2247;42.666;23.292;2023-01-25T05:57:15;95437.16;;;5.00;65.53
4469;BME280;2247;42.666;23.292;2023-01-25T05:59:44;95430.69;;;5.09;65.07
4469;BME280;2247;42.666;23.292;2023-01-25T06:02:11;95438.22;;;4.92;65.15
4469;BME280;2247;42.666;23.292;2023-01-25T06:04:38;95427.59;;;4.87;65.16
4469;BME280;2247;42.666;23.292;2023-01-25T06:07:08;95426.69;;;5.06;65.01
4469;BME280;2247;42.666;23.292;2023-01-25T06:09:35;95421.88;;;5.35;63.98
4469;BME280;2247;42.666;23.292;2023-01-25T06:12:03;95428.41;;;5.19;64.26
4469;BME280;2247;42.666;23.292;2023-01-25T06:14:41;95440.59;;;5.32;63.89
4469;BME280;2247;42.666;23.292;2023-01-25T06:17:18;95434.63;;;5.74;66.87
4469;BME280;2247;42.666;23.292;2023-01-25T06:19:56;95445.66;;;5.76;63.05
4469;BME280;2247;42.666;23.292;2023-01-25T06:22:25;95424.22;;;5.43;62.87
4469;BME280;2247;42.666;23.292;2023-01-25T06:24:53;95433.59;;;5.75;62.66
4469;BME280;2247;42.666;23.292;2023-01-25T06:27:21;95436.41;;;5.80;62.14
4469;BME280;2247;42.666;23.292;2023-01-25T06:29:48;95437.78;;;5.58;63.18
4469;BME280;2247;42.666;23.292;2023-01-25T06:32:18;95443.69;;;5.47;63.13
4469;BME280;2247;42.666;23.292;2023-01-25T06:34:46;95433.25;;;5.72;62.82
4469;BME280;2247;42.666;23.292;2023-01-25T06:37:13;95450.94;;;5.70;63.21
4469;BME280;2247;42.666;23.292;2023-01-25T06:39:41;95435.66;;;5.73;62.52
4469;BME280;2247;42.666;23.292;2023-01-25T06:42:08;95438.88;;;5.69;62.24
4469;BME280;2247;42.666;23.292;2023-01-25T06:44:35;95440.56;;;5.63;62.55
4469;BME280;2247;42.666;23.292;2023-01-25T06:47:03;95433.31;;;5.65;62.65
4469;BME280;2247;42.666;23.292;2023-01-25T06:49:32;95434.09;;;5.90;62.09
4469;BME280;2247;42.666;23.292;2023-01-25T06:51:59;95434.41;;;5.76;62.24
4469;BME280;2247;42.666;23.292;2023-01-25T06:54:26;95418.78;;;5.44;63.10
4469;BME280;2247;42.666;23.292;2023-01-25T06:56:54;95429.75;;;5.28;64.36
4469;BME280;2247;42.666;23.292;2023-01-25T06:59:21;95438.72;;;5.07;65.13
4469;BME280;2247;42.666;23.292;2023-01-25T07:01:48;95437.72;;;5.08;64.97
4469;BME280;2247;42.666;23.292;2023-01-25T07:04:15;95438.84;;;4.88;65.53
4469;BME280;2247;42.666;23.292;2023-01-25T07:06:45;95439.41;;;4.96;65.35
4469;BME280;2247;42.666;23.292;2023-01-25T07:09:13;95437.31;;;5.11;64.72
4469;BME280;2247;42.666;23.292;2023-01-25T07:11:40;95427.97;;;4.97;64.96
4469;BME280;2247;42.666;23.292;2023-01-25T07:14:07;95445.81;;;5.00;64.96
4469;BME280;2247;42.666;23.292;2023-01-25T07:16:34;95435.78;;;4.97;64.99
4469;BME280;2247;42.666;23.292;2023-01-25T07:19:04;95438.69;;;5.14;64.88
4469;BME280;2247;42.666;23.292;2023-01-25T07:21:32;95443.72;;;5.15;64.76
4469;BME280;2247;42.666;23.292;2023-01-25T07:24:02;95438.13;;;5.05;64.74
4469;BME280;2247;42.666;23.292;2023-01-25T07:26:30;95446.38;;;5.09;64.25
4469;BME280;2247;42.666;23.292;2023-01-25T07:29:03;95455.22;;;4.70;65.49
4469;BME280;2247;42.666;23.292;2023-01-25T07:31:31;95449.66;;;4.53;66.65
4469;BME280;2247;42.666;23.292;2023-01-25T07:35:38;95453.59;;;4.69;66.54
4469;BME280;2247;42.666;23.292;2023-01-25T07:38:06;95450.72;;;4.84;66.43
4469;BME280;2247;42.666;23.292;2023-01-25T07:40:33;95452.00;;;5.06;65.69
4469;BME280;2247;42.666;23.292;2023-01-25T07:43:00;95460.09;;;5.29;65.35
4469;BME280;2247;42.666;23.292;2023-01-25T07:45:27;95465.13;;;5.31;64.41
4469;BME280;2247;42.666;23.292;2023-01-25T07:47:56;95454.53;;;5.19;64.99
4469;BME280;2247;42.666;23.292;2023-01-25T07:50:27;95456.25;;;5.00;65.14
4469;BME280;2247;42.666;23.292;2023-01-25T07:53:03;95454.69;;;4.48;66.75
4469;BME280;2247;42.666;23.292;2023-01-25T07:55:32;95446.19;;;4.66;67.52
4469;BME280;2247;42.666;23.292;2023-01-25T07:58:00;95452.53;;;4.83;66.79
4469;BME280;2247;42.666;23.292;2023-01-25T08:00:29;95435.00;;;4.97;66.05
4469;BME280;2247;42.666;23.292;2023-01-25T08:02:56;95439.50;;;5.14;65.96
4469;BME280;2247;42.666;23.292;2023-01-25T08:05:23;95458.88;;;5.32;65.49
4469;BME280;2247;42.666;23.292;2023-01-25T08:07:50;95444.66;;;5.21;65.19
4469;BME280;2247;42.666;23.292;2023-01-25T08:10:18;95445.72;;;5.13;65.84
4469;BME280;2247;42.666;23.292;2023-01-25T08:12:46;95437.38;;;4.98;66.03
4469;BME280;2247;42.666;23.292;2023-01-25T08:15:13;95439.34;;;5.09;66.47
4469;BME280;2247;42.666;23.292;2023-01-25T08:17:41;95455.75;;;5.17;66.70
4469;BME280;2247;42.666;23.292;2023-01-25T08:20:10;95453.75;;;5.12;66.64
4469;BME280;2247;42.666;23.292;2023-01-25T08:22:38;95453.22;;;5.03;66.85
4469;BME280;2247;42.666;23.292;2023-01-25T08:25:06;95446.50;;;4.83;67.60
4469;BME280;2247;42.666;23.292;2023-01-25T08:32:40;95445.53;;;4.77;68.60
4469;BME280;2247;42.666;23.292;2023-01-25T08:37:52;95409.72;;;4.84;68.03
4469;BME280;2247;42.666;23.292;2023-01-25T09:04:51;95435.16;;;5.83;65.01
4469;BME280;2247;42.666;23.292;2023-01-25T09:07:22;95451.56;;;5.40;65.73
4469;BME280;2247;42.666;23.292;2023-01-25T09:09:56;95427.44;;;5.13;69.41
4469;BME280;2247;42.666;23.292;2023-01-25T09:12:23;95436.53;;;5.36;69.62
4469;BME280;2247;42.666;23.292;2023-01-25T09:17:26;95425.72;;;5.57;67.03
4469;BME280;2247;42.666;23.292;2023-01-25T09:30:15;95405.03;;;5.31;67.14
4469;BME280;2247;42.666;23.292;2023-01-25T09:32:42;95411.91;;;5.25;67.95
4469;BME280;2247;42.666;23.292;2023-01-25T09:35:10;95406.25;;;5.28;68.25
4469;BME280;2247;42.666;23.292;2023-01-25T09:40:18;95399.66;;;5.19;67.59
4469;BME280;2247;42.666;23.292;2023-01-25T09:48:13;95368.34;;;5.44;68.36
4469;BME280;2247;42.666;23.292;2023-01-25T09:56:02;95369.56;;;5.84;66.69
4469;BME280;2247;42.666;23.292;2023-01-25T10:03:47;95363.22;;;5.31;68.30
4469;BME280;2247;42.666;23.292;2023-01-25T10:11:27;95357.69;;;5.45;68.96
4469;BME280;2247;42.666;23.292;2023-01-25T10:24:52;95344.75;;;5.01;68.87
4469;BME280;2247;42.666;23.292;2023-01-25T10:30:19;95329.13;;;5.44;67.95
4469;BME280;2247;42.666;23.292;2023-01-25T10:32:49;95325.19;;;5.60;67.10
4469;BME280;2247;42.666;23.292;2023-01-25T10:35:33;95302.13;;;5.50;67.53
4469;BME280;2247;42.666;23.292;2023-01-25T10:38:06;95327.19;;;6.01;66.43
4469;BME280;2247;42.666;23.292;2023-01-25T10:41:01;95288.38;;;5.79;65.14
4469;BME280;2247;42.666;23.292;2023-01-25T10:43:30;95308.78;;;5.89;66.06
4469;BME280;2247;42.666;23.292;2023-01-25T10:45:57;95314.28;;;6.17;65.36
4469;BME280;2247;42.666;23.292;2023-01-25T10:48:27;95308.63;;;6.02;64.92
4469;BME280;2247;42.666;23.292;2023-01-25T10:50:57;95290.69;;;6.06;64.58
4469;BME280;2247;42.666;23.292;2023-01-25T10:53:28;95272.09;;;5.96;64.45
4469;BME280;2247;42.666;23.292;2023-01-25T10:56:10;95286.34;;;6.00;63.62
4469;BME280;2247;42.666;23.292;2023-01-25T10:58:42;95278.38;;;5.95;63.94
4469;BME280;2247;42.666;23.292;2023-01-25T11:01:12;95284.22;;;5.72;64.32
4469;BME280;2247;42.666;23.292;2023-01-25T11:03:42;95279.06;;;5.83;64.72
4469;BME280;2247;42.666;23.292;2023-01-25T11:06:12;95276.66;;;5.82;63.55
4469;BME280;2247;42.666;23.292;2023-01-25T11:08:40;95266.06;;;5.59;64.07
4469;BME280;2247;42.666;23.292;2023-01-25T11:11:24;95280.34;;;5.74;64.12
4469;BME280;2247;42.666;23.292;2023-01-25T11:13:51;95273.41;;;5.86;63.30
4469;BME280;2247;42.666;23.292;2023-01-25T11:16:30;95261.06;;;5.93;63.02
4469;BME280;2247;42.666;23.292;2023-01-25T11:18:59;95263.38;;;5.83;62.73
4469;BME280;2247;42.666;23.292;2023-01-25T11:21:29;95248.41;;;5.72;63.36
4469;BME280;2247;42.666;23.292;2023-01-25T11:24:01;95258.78;;;6.15;62.46
4469;BME280;2247;42.666;23.292;2023-01-25T11:26:30;95265.06;;;6.26;62.04
4469;BME280;2247;42.666;23.292;2023-01-25T11:29:11;95267.50;;;6.39;61.02
4469;BME280;2247;42.666;23.292;2023-01-25T11:31:40;95262.16;;;6.34;60.62
4469;BME280;2247;42.666;23.292;2023-01-25T11:34:11;95254.78;;;6.43;61.23
4469;BME280;2247;42.666;23.292;2023-01-25T11:39:35;95254.91;;;6.18;61.39
4469;BME280;2247;42.666;23.292;2023-01-25T11:42:15;95233.44;;;5.98;61.70
4469;BME280;2247;42.666;23.292;2023-01-25T11:47:35;95224.31;;;5.88;61.79
4469;BME280;2247;42.666;23.292;2023-01-25T11:55:23;95207.25;;;5.31;64.50
4469;BME280;2247;42.666;23.292;2023-01-25T11:58:05;95208.19;;;5.55;63.69
4469;BME280;2247;42.666;23.292;2023-01-25T12:00:56;95203.34;;;5.59;63.00
4469;BME280;2247;42.666;23.292;2023-01-25T12:03:59;95195.53;;;5.70;62.45
4469;BME280;2247;42.666;23.292;2023-01-25T12:06:40;95197.59;;;5.50;62.79
4469;BME280;2247;42.666;23.292;2023-01-25T12:09:25;95204.28;;;5.64;63.29
4469;BME280;2247;42.666;23.292;2023-01-25T12:12:09;95199.38;;;5.68;62.68
4469;BME280;2247;42.666;23.292;2023-01-25T12:14:59;95204.56;;;5.56;62.80
4469;BME280;2247;42.666;23.292;2023-01-25T12:17:42;95192.81;;;5.29;63.43
4469;BME280;2247;42.666;23.292;2023-01-25T12:20:36;95172.41;;;5.19;64.44
4469;BME280;2247;42.666;23.292;2023-01-25T12:23:34;95191.06;;;5.41;63.97
4469;BME280;2247;42.666;23.292;2023-01-25T12:26:12;95199.09;;;5.39;63.79
4469;BME280;2247;42.666;23.292;2023-01-25T12:28:44;95183.38;;;5.28;63.71
4469;BME280;2247;42.666;23.292;2023-01-25T12:31:18;95194.03;;;5.26;64.02
4469;BME280;2247;42.666;23.292;2023-01-25T12:39:02;95178.22;;;5.39;63.54
4469;BME280;2247;42.666;23.292;2023-01-25T12:41:38;95183.88;;;5.54;63.28
4469;BME280;2247;42.666;23.292;2023-01-25T12:46:46;95173.50;;;5.30;63.85
4469;BME280;2247;42.666;23.292;2023-01-25T12:49:21;95177.50;;;5.50;63.50
4469;BME280;2247;42.666;23.292;2023-01-25T12:51:51;95174.59;;;5.40;63.86
4469;BME280;2247;42.666;23.292;2023-01-25T12:54:26;95166.53;;;5.42;63.55
4469;BME280;2247;42.666;23.292;2023-01-25T12:56:59;95172.53;;;5.61;63.37
4469;BME280;2247;42.666;23.292;2023-01-25T12:59:38;95149.53;;;5.33;63.36
4469;BME280;2247;42.666;23.292;2023-01-25T13:02:25;95167.19;;;5.37;63.63
4469;BME280;2247;42.666;23.292;2023-01-25T13:05:02;95152.75;;;5.17;64.95
4469;BME280;2247;42.666;23.292;2023-01-25T13:07:41;95158.41;;;5.32;64.68
4469;BME280;2247;42.666;23.292;2023-01-25T13:10:16;95156.22;;;5.29;64.45
4469;BME280;2247;42.666;23.292;2023-01-25T13:15:41;95134.28;;;5.48;62.94
4469;BME280;2247;42.666;23.292;2023-01-25T13:21:44;95147.28;;;5.54;62.88
4469;BME280;2247;42.666;23.292;2023-01-25T13:24:18;95140.91;;;5.50;63.11
4469;BME280;2247;42.666;23.292;2023-01-25T13:26:59;95139.94;;;5.63;63.11
4469;BME280;2247;42.666;23.292;2023-01-25T13:30:01;95137.69;;;5.67;62.50
4469;BME280;2247;42.666;23.292;2023-01-25T13:33:03;95141.00;;;5.74;62.48
4469;BME280;2247;42.666;23.292;2023-01-25T13:35:46;95150.34;;;5.81;62.54
4469;BME280;2247;42.666;23.292;2023-01-25T13:38:34;95146.00;;;5.75;62.32
4469;BME280;2247;42.666;23.292;2023-01-25T13:41:15;95141.94;;;5.79;62.50
4469;BME280;2247;42.666;23.292;2023-01-25T13:44:07;95141.22;;;5.72;62.45
4469;BME280;2247;42.666;23.292;2023-01-25T13:46:38;95153.28;;;5.73;62.97
4469;BME280;2247;42.666;23.292;2023-01-25T13:49:18;95151.94;;;5.82;62.80
4469;BME280;2247;42.666;23.292;2023-01-25T13:51:51;95168.06;;;5.98;61.38
4469;BME280;2247;42.666;23.292;2023-01-25T13:54:28;95161.47;;;5.77;61.84
4469;BME280;2247;42.666;23.292;2023-01-25T13:57:05;95160.00;;;5.81;62.00
4469;BME280;2247;42.666;23.292;2023-01-25T13:59:34;95145.09;;;5.81;62.08
4469;BME280;2247;42.666;23.292;2023-01-25T14:04:43;95155.91;;;6.03;61.67
4469;BME280;2247;42.666;23.292;2023-01-25T14:07:16;95140.44;;;5.72;62.15
4469;BME280;2247;42.666;23.292;2023-01-25T14:09:47;95146.34;;;6.09;61.84
4469;BME280;2247;42.666;23.292;2023-01-25T14:12:27;95145.53;;;5.97;61.24
4469;BME280;2247;42.666;23.292;2023-01-25T14:15:09;95156.22;;;5.95;61.56
4469;BME280;2247;42.666;23.292;2023-01-25T14:20:16;95162.78;;;5.68;62.22
4469;BME280;2247;42.666;23.292;2023-01-25T14:22:46;95129.94;;;5.42;62.79
4469;BME280;2247;42.666;23.292;2023-01-25T14:25:17;95152.41;;;5.61;63.32
4469;BME280;2247;42.666;23.292;2023-01-25T14:27:53;95144.56;;;5.79;62.91
4469;BME280;2247;42.666;23.292;2023-01-25T14:30:26;95135.41;;;5.70;62.50
4469;BME280;2247;42.666;23.292;2023-01-25T14:33:18;95135.13;;;5.60;62.56
4469;BME280;2247;42.666;23.292;2023-01-25T14:35:48;95136.25;;;5.52;63.19
4469;BME280;2247;42.666;23.292;2023-01-25T14:38:28;95132.84;;;5.34;63.91
4469;BME280;2247;42.666;23.292;2023-01-25T14:41:07;95145.06;;;5.22;63.69
4469;BME280;2247;42.666;23.292;2023-01-25T14:43:43;95116.06;;;5.11;64.26
4469;BME280;2247;42.666;23.292;2023-01-25T14:46:27;95105.44;;;5.06;64.03
4469;BME280;2247;42.666;23.292;2023-01-25T14:49:18;95113.28;;;5.25;64.06
4469;BME280;2247;42.666;23.292;2023-01-25T14:51:56;95135.00;;;5.55;63.53
4469;BME280;2247;42.666;23.292;2023-01-25T14:54:29;95123.41;;;5.51;63.23
4469;BME280;2247;42.666;23.292;2023-01-25T14:57:21;95130.38;;;5.57;63.13
4469;BME280;2247;42.666;23.292;2023-01-25T15:02:25;95116.59;;;5.50;62.73
4469;BME280;2247;42.666;23.292;2023-01-25T15:05:00;95136.69;;;5.49;63.29
4469;BME280;2247;42.666;23.292;2023-01-25T15:07:42;95152.03;;;5.28;63.85
4469;BME280;2247;42.666;23.292;2023-01-25T15:10:21;95156.53;;;5.02;64.58
4469;BME280;2247;42.666;23.292;2023-01-25T15:12:59;95134.63;;;5.03;64.52
4469;BME280;2247;42.666;23.292;2023-01-25T15:15:34;95166.94;;;4.84;64.71
4469;BME280;2247;42.666;23.292;2023-01-25T15:18:04;95168.38;;;4.80;65.09
4469;BME280;2247;42.666;23.292;2023-01-25T15:20:37;95167.97;;;5.01;64.85
4469;BME280;2247;42.666;23.292;2023-01-25T15:23:24;95179.09;;;5.15;64.33
4469;BME280;2247;42.666;23.292;2023-01-25T15:25:53;95166.53;;;5.05;64.59
4469;BME280;2247;42.666;23.292;2023-01-25T15:28:26;95185.47;;;5.01;64.66
4469;BME280;2247;42.666;23.292;2023-01-25T15:30:59;95174.06;;;5.13;64.83
4469;BME280;2247;42.666;23.292;2023-01-25T15:33:29;95162.03;;;4.94;64.81
4469;BME280;2247;42.666;23.292;2023-01-25T15:35:57;95172.19;;;5.02;65.14
4469;BME280;2247;42.666;23.292;2023-01-25T15:41:01;95153.56;;;5.17;64.79
4469;BME280;2247;42.666;23.292;2023-01-25T15:43:32;95168.50;;;5.28;64.07
4469;BME280;2247;42.666;23.292;2023-01-25T15:46:03;95184.97;;;5.29;64.21
4469;BME280;2247;42.666;23.292;2023-01-25T15:48:37;95178.13;;;4.91;64.71
4469;BME280;2247;42.666;23.292;2023-01-25T15:51:12;95163.09;;;4.87;65.00
4469;BME280;2247;42.666;23.292;2023-01-25T15:53:39;95179.31;;;5.13;64.58
4469;BME280;2247;42.666;23.292;2023-01-25T15:56:11;95161.13;;;5.25;63.83
4469;BME280;2247;42.666;23.292;2023-01-25T16:03:51;95173.56;;;4.87;64.03
4469;BME280;2247;42.666;23.292;2023-01-25T16:08:53;95172.66;;;4.74;64.75
4469;BME280;2247;42.666;23.292;2023-01-25T16:19:17;95167.44;;;4.50;64.96
4469;BME280;2247;42.666;23.292;2023-01-25T16:21:44;95169.97;;;4.63;65.31
4469;BME280;2247;42.666;23.292;2023-01-25T16:29:22;95175.31;;;4.43;65.74
4469;BME280;2247;42.666;23.292;2023-01-25T16:31:51;95162.31;;;4.12;66.46
4469;BME280;2247;42.666;23.292;2023-01-25T16:34:20;95172.72;;;4.18;66.56
4469;BME280;2247;42.666;23.292;2023-01-25T16:36:48;95131.47;;;3.77;67.48
4469;BME280;2247;42.666;23.292;2023-01-25T16:39:17;95153.03;;;3.91;67.28
4469;BME280;2247;42.666;23.292;2023-01-25T16:41:45;95165.63;;;4.25;66.76
4469;BME280;2247;42.666;23.292;2023-01-25T16:46:48;95167.19;;;4.58;65.69
4469;BME280;2247;42.666;23.292;2023-01-25T16:49:34;95155.63;;;4.72;64.82
4469;BME280;2247;42.666;23.292;2023-01-25T16:57:14;95162.44;;;4.91;63.60
4469;BME280;2247;42.666;23.292;2023-01-25T17:02:14;95137.56;;;3.96;65.72
4469;BME280;2247;42.666;23.292;2023-01-25T17:04:43;95150.94;;;4.06;66.30
4469;BME280;2247;42.666;23.292;2023-01-25T17:07:10;95169.94;;;4.13;66.23
4469;BME280;2247;42.666;23.292;2023-01-25T17:09:38;95162.28;;;4.18;65.68
4469;BME280;2247;42.666;23.292;2023-01-25T17:12:05;95170.84;;;4.01;66.34
4469;BME280;2247;42.666;23.292;2023-01-25T17:14:33;95153.00;;;3.97;66.83
4469;BME280;2247;42.666;23.292;2023-01-25T17:17:00;95144.56;;;3.95;66.97
4469;BME280;2247;42.666;23.292;2023-01-25T17:19:29;95173.97;;;4.09;67.04
4469;BME280;2247;42.666;23.292;2023-01-25T17:21:58;95162.50;;;4.17;66.76
4469;BME280;2247;42.666;23.292;2023-01-25T17:24:25;95164.25;;;4.23;66.63
4469;BME280;2247;42.666;23.292;2023-01-25T17:26:54;95162.63;;;4.28;66.80
4469;BME280;2247;42.666;23.292;2023-01-25T17:29:22;95152.53;;;4.32;65.85
4469;BME280;2247;42.666;23.292;2023-01-25T17:35:08;95156.09;;;4.13;66.24
4469;BME280;2247;42.666;23.292;2023-01-25T17:37:35;95160.09;;;4.15;66.67
4469;BME280;2247;42.666;23.292;2023-01-25T17:40:07;95149.94;;;4.07;66.81
4469;BME280;2247;42.666;23.292;2023-01-25T17:42:35;95144.97;;;3.99;67.04
4469;BME280;2247;42.666;23.292;2023-01-25T17:45:03;95146.22;;;3.90;67.12
4469;BME280;2247;42.666;23.292;2023-01-25T17:47:31;95134.59;;;3.54;67.93
4469;BME280;2247;42.666;23.292;2023-01-25T17:49:59;95141.22;;;3.57;68.57
4469;BME280;2247;42.666;23.292;2023-01-25T17:52:28;95132.50;;;3.70;68.74
4469;BME280;2247;42.666;23.292;2023-01-25T17:54:55;95126.88;;;4.04;67.80
4469;BME280;2247;42.666;23.292;2023-01-25T17:57:25;95121.06;;;4.02;66.98
4469;BME280;2247;42.666;23.292;2023-01-25T17:59:55;95120.00;;;4.10;66.90
4469;BME280;2247;42.666;23.292;2023-01-25T18:02:22;95126.13;;;3.97;67.15
4469;BME280;2247;42.666;23.292;2023-01-25T18:04:50;95116.44;;;4.04;67.08
4469;BME280;2247;42.666;23.292;2023-01-25T18:07:17;95116.03;;;4.07;67.10
4469;BME280;2247;42.666;23.292;2023-01-25T18:09:46;95108.09;;;3.95;67.04
4469;BME280;2247;42.666;23.292;2023-01-25T18:12:13;95123.19;;;3.87;67.66
4469;BME280;2247;42.666;23.292;2023-01-25T18:14:43;95111.66;;;4.01;67.29
4469;BME280;2247;42.666;23.292;2023-01-25T18:17:10;95109.03;;;4.08;67.16
4469;BME280;2247;42.666;23.292;2023-01-25T18:19:38;95113.59;;;4.12;67.23
4469;BME280;2247;42.666;23.292;2023-01-25T18:22:10;95109.53;;;4.16;66.89
4469;BME280;2247;42.666;23.292;2023-01-25T18:24:38;95116.56;;;4.16;66.49
4469;BME280;2247;42.666;23.292;2023-01-25T18:27:16;95116.03;;;4.07;66.39
4469;BME280;2247;42.666;23.292;2023-01-25T18:29:47;95095.06;;;4.20;66.05
4469;BME280;2247;42.666;23.292;2023-01-25T18:32:15;95099.69;;;4.18;66.05
4469;BME280;2247;42.666;23.292;2023-01-25T18:34:42;95103.19;;;4.30;66.04
4469;BME280;2247;42.666;23.292;2023-01-25T18:37:09;95096.56;;;4.34;65.44
4469;BME280;2247;42.666;23.292;2023-01-25T18:39:45;95087.72;;;4.35;65.27
4469;BME280;2247;42.666;23.292;2023-01-25T18:42:14;95100.81;;;4.04;65.71
4469;BME280;2247;42.666;23.292;2023-01-25T18:44:41;95116.84;;;4.01;67.04
4469;BME280;2247;42.666;23.292;2023-01-25T18:47:12;95113.84;;;4.04;66.53
4469;BME280;2247;42.666;23.292;2023-01-25T18:49:43;95104.31;;;4.16;66.28
4469;BME280;2247;42.666;23.292;2023-01-25T18:57:55;95125.03;;;4.11;65.67
4469;BME280;2247;42.666;23.292;2023-01-25T19:00:37;95115.94;;;4.20;65.97
4469;BME280;2247;42.666;23.292;2023-01-25T19:03:05;95110.81;;;3.76;66.69
4469;BME280;2247;42.666;23.292;2023-01-25T19:05:33;95114.50;;;3.30;68.54
4469;BME280;2247;42.666;23.292;2023-01-25T19:08:01;95111.22;;;3.41;68.87
4469;BME280;2247;42.666;23.292;2023-01-25T19:10:29;95096.72;;;3.59;68.19
4469;BME280;2247;42.666;23.292;2023-01-25T19:12:57;95104.69;;;3.64;67.66
4469;BME280;2247;42.666;23.292;2023-01-25T19:15:25;95100.78;;;3.48;68.28
4469;BME280;2247;42.666;23.292;2023-01-25T19:17:52;95092.34;;;3.52;68.33
4469;BME280;2247;42.666;23.292;2023-01-25T19:20:20;95088.25;;;3.25;68.89
4469;BME280;2247;42.666;23.292;2023-01-25T19:22:50;95090.31;;;3.16;69.08
4469;BME280;2247;42.666;23.292;2023-01-25T19:25:19;95087.47;;;3.25;69.67
4469;BME280;2247;42.666;23.292;2023-01-25T19:27:50;95078.81;;;3.37;69.29
4469;BME280;2247;42.666;23.292;2023-01-25T19:41:17;95034.66;;;3.49;68.56
4469;BME280;2247;42.666;23.292;2023-01-25T19:46:15;95069.56;;;3.73;67.65
4469;BME280;2247;42.666;23.292;2023-01-25T19:48:44;95058.59;;;3.89;67.58